Time;durP1;ratioP1;P1;durP2;ratioP2;P2;SDS_P1;SDS_P2;PMS_P1;PMS_P2;Temp;Humidity;BMP_temperature;BMP_pressure;BME280_temperature;BME280_humidity;BME280_pressure;Samples;Min_cycle;Max_cycle;Signal;HPM_P1;HPM_P2
2023/01/04 05:02:09;;;;;;;11.32;6.75;;;6.60;99.90;;;;;;5202299;23;20061;-67
2023/01/04 05:04:35;;;;;;;9.67;6.00;;;6.70;99.90;;;;;;5002006;28;20030;-67
2023/01/04 05:07:00;;;;;;;11.90;7.13;;;6.90;99.90;;;;;;5014751;28;20026;-67
2023/01/04 05:09:26;;;;;;;8.73;5.60;;;6.90;99.90;;;;;;5014610;28;20513;-66
2023/01/04 05:14:35;;;;;;;8.63;5.50;;;7.00;99.90;;;;;;5017899;23;20097;-68
2023/01/04 05:17:01;;;;;;;9.90;4.90;;;7.10;99.90;;;;;;5015410;28;20034;-68
2023/01/04 05:19:26;;;;;;;9.27;4.63;;;7.10;99.90;;;;;;4994906;28;20014;-69
2023/01/04 05:21:52;;;;;;;8.90;4.20;;;7.20;99.90;;;;;;4994904;28;20097;-69
2023/01/04 05:24:17;;;;;;;6.37;3.77;;;7.10;99.90;;;;;;4994162;28;20109;-68
2023/01/04 05:26:43;;;;;;;5.47;3.43;;;7.20;99.90;;;;;;4977681;28;20383;-68
2023/01/04 05:30:49;;;;;;;5.93;3.27;;;7.20;99.90;;;;;;4976094;28;20027;-68
2023/01/04 05:31:54;;;;;;;5.03;3.00;;;7.20;99.90;;;;;;4977811;28;20054;-67
2023/01/04 05:34:19;;;;;;;6.07;3.03;;;7.40;99.90;;;;;;4977073;28;20030;-67
2023/01/04 05:36:45;;;;;;;3.77;2.27;;;7.40;99.90;;;;;;4990231;28;20056;-67
2023/01/04 05:39:11;;;;;;;4.17;1.57;;;7.60;99.90;;;;;;4975371;28;20057;-67
2023/01/04 05:44:20;;;;;;;3.47;1.85;;;7.60;99.90;;;;;;4980669;28;20089;-67
2023/01/04 05:46:46;;;;;;;3.63;1.80;;;7.70;99.90;;;;;;4983380;28;20026;-67
2023/01/04 05:49:11;;;;;;;6.23;2.07;;;7.80;99.90;;;;;;4993858;28;20073;-68
2023/01/04 05:51:37;;;;;;;2.57;1.40;;;7.80;99.90;;;;;;4994263;28;20489;-67
2023/01/04 05:54:02;;;;;;;3.57;1.43;;;7.80;99.90;;;;;;4993503;28;20027;-67
2023/01/04 05:56:28;;;;;;;3.10;1.20;;;7.90;99.90;;;;;;4994397;28;20034;-69
2023/01/04 05:58:53;;;;;;;3.27;1.40;;;7.90;99.90;;;;;;4994921;28;20053;-68
2023/01/04 06:01:19;;;;;;;2.47;1.30;;;8.00;99.90;;;;;;4983276;28;20521;-68
2023/01/04 06:03:44;;;;;;;2.50;1.50;;;8.10;99.90;;;;;;4979069;28;20031;-68
2023/01/04 06:06:10;;;;;;;5.80;1.47;;;8.10;99.90;;;;;;4978630;28;20027;-68
2023/01/04 06:08:35;;;;;;;3.57;1.40;;;8.20;99.90;;;;;;4990478;28;20352;-68
2023/01/04 06:11:01;;;;;;;3.27;1.27;;;8.20;99.90;;;;;;4998396;28;20019;-68
2023/01/04 06:13:26;;;;;;;2.87;1.20;;;8.20;99.90;;;;;;4998428;28;20110;-68
2023/01/04 06:15:52;;;;;;;5.07;1.90;;;8.30;99.90;;;;;;4993726;28;20451;-69
2023/01/04 06:18:17;;;;;;;4.63;2.07;;;8.30;99.90;;;;;;4982053;28;20887;-68
2023/01/04 06:20:43;;;;;;;2.87;0.93;;;8.30;99.90;;;;;;4999695;28;20058;-69
2023/01/04 06:23:09;;;;;;;3.03;1.73;;;8.40;99.90;;;;;;4993005;28;20034;-69
2023/01/04 06:25:34;;;;;;;3.37;1.13;;;8.40;99.90;;;;;;4999170;28;20026;-69
2023/01/04 06:28:00;;;;;;;2.03;0.90;;;8.40;99.90;;;;;;4998598;28;20027;-67
2023/01/04 06:30:25;;;;;;;4.30;1.10;;;8.40;99.90;;;;;;4998350;28;20101;-68
2023/01/04 06:32:51;;;;;;;3.00;1.00;;;8.50;99.90;;;;;;4997427;28;20029;-67
2023/01/04 06:35:17;;;;;;;3.40;1.07;;;8.50;99.90;;;;;;4997480;28;20019;-67
2023/01/04 06:37:42;;;;;;;2.33;0.90;;;8.50;99.90;;;;;;4997696;28;20399;-68
2023/01/04 06:40:08;;;;;;;2.97;1.10;;;8.50;99.90;;;;;;4997035;28;20471;-67
2023/01/04 06:42:46;;;;;;;1.88;1.02;;;8.50;99.90;;;;;;4997761;28;20023;-68
2023/01/04 06:45:13;;;;;;;2.15;0.82;;;8.60;99.90;;;;;;4997368;28;20096;-67
2023/01/04 06:47:39;;;;;;;3.08;1.10;;;8.60;99.90;;;;;;4978229;28;20113;-67
2023/01/04 06:50:05;;;;;;;6.88;1.13;;;8.60;99.90;;;;;;4977806;28;20376;-67
2023/01/04 06:52:30;;;;;;;1.30;0.75;;;8.60;99.90;;;;;;4977855;28;20023;-70
2023/01/04 06:54:56;;;;;;;4.23;1.20;;;8.70;99.90;;;;;;4977467;28;20497;-69
2023/01/04 06:57:22;;;;;;;3.13;1.03;;;8.70;99.90;;;;;;4978039;28;20472;-69
2023/01/04 06:59:48;;;;;;;3.13;0.90;;;8.70;99.90;;;;;;4976854;28;20062;-69
2023/01/04 07:02:14;;;;;;;1.73;0.80;;;8.80;99.90;;;;;;4992428;28;20073;-68
2023/01/04 07:04:40;;;;;;;2.53;1.23;;;8.80;99.90;;;;;;4995810;28;20030;-69
2023/01/04 07:07:06;;;;;;;3.88;0.88;;;8.80;99.90;;;;;;4995492;28;20565;-69
2023/01/04 07:09:32;;;;;;;3.63;1.00;;;8.70;99.90;;;;;;4996404;28;20065;-69
2023/01/04 07:11:58;;;;;;;2.40;0.90;;;8.80;99.90;;;;;;4995454;28;20034;-69
2023/01/04 07:14:23;;;;;;;2.67;0.77;;;8.90;99.90;;;;;;4985433;28;20027;-69
2023/01/04 07:16:49;;;;;;;1.53;0.73;;;8.80;99.90;;;;;;4994735;28;20046;-71
2023/01/04 07:19:14;;;;;;;7.10;1.20;;;8.90;99.90;;;;;;4997197;28;20039;-70
2023/01/04 07:21:40;;;;;;;2.93;1.07;;;8.90;99.90;;;;;;4995606;28;20479;-69
2023/01/04 07:24:06;;;;;;;3.73;0.90;;;8.90;99.90;;;;;;4996363;28;20034;-69
2023/01/04 07:26:32;;;;;;;3.53;1.13;;;8.90;99.90;;;;;;4997618;28;20086;-70
2023/01/04 07:29:13;;;;;;;2.92;0.70;;;8.90;99.90;;;;;;4996677;28;20054;-70
2023/01/04 07:31:39;;;;;;;2.17;0.70;;;9.00;99.90;;;;;;4995730;28;20034;-67
2023/01/04 07:34:06;;;;;;;2.87;0.90;;;9.00;99.90;;;;;;4995178;28;20050;-68
2023/01/04 07:36:31;;;;;;;;;;;9.00;99.90;;;;;;4995489;28;20777;-68
2023/01/04 07:38:59;;;;;;;2.35;0.77;;;9.00;99.90;;;;;;4987608;28;19906;-71
2023/01/04 07:41:26;;;;;;;9.15;0.90;;;9.00;99.90;;;;;;4987535;28;20062;-68
2023/01/04 07:43:51;;;;;;;;;;;9.00;99.90;;;;;;4978871;28;20052;-69
2023/01/04 07:46:17;;;;;;;4.15;0.93;;;9.00;99.90;;;;;;4995309;28;20415;-67
2023/01/04 07:48:42;;;;;;;1.40;0.50;;;9.10;99.90;;;;;;4994760;28;20514;-69
2023/01/04 07:51:08;;;;;;;1.90;0.60;;;9.00;99.90;;;;;;4995111;28;20634;-70
2023/01/04 07:53:33;;;;;;;2.50;0.90;;;9.00;99.90;;;;;;4994835;28;20479;-69
2023/01/04 07:55:59;;;;;;;2.57;0.70;;;9.00;99.90;;;;;;4994371;28;20061;-69
2023/01/04 07:58:26;;;;;;;4.35;1.73;;;9.00;99.90;;;;;;4992735;28;20491;-68
2023/01/04 08:00:51;;;;;;;3.33;0.90;;;9.00;99.90;;;;;;4993880;28;20109;-68
2023/01/04 08:03:17;;;;;;;2.77;0.80;;;9.00;99.90;;;;;;4994555;28;20118;-68
2023/01/04 08:05:43;;;;;;;6.95;1.10;;;9.00;99.90;;;;;;4995329;28;20105;-69
2023/01/04 08:08:08;;;;;;;3.00;0.70;;;9.00;99.90;;;;;;4995927;28;20089;-69
2023/01/04 08:10:35;;;;;;;2.40;0.90;;;9.10;99.90;;;;;;4994394;28;20077;-69
2023/01/04 08:13:00;;;;;;;5.38;0.80;;;9.10;99.90;;;;;;4995601;28;20333;-69
2023/01/04 08:15:26;;;;;;;2.37;1.30;;;9.00;99.90;;;;;;4995115;28;20077;-69
2023/01/04 08:17:52;;;;;;;2.88;0.80;;;9.00;99.90;;;;;;4993969;28;20058;-69
2023/01/04 08:20:18;;;;;;;1.98;0.90;;;9.00;99.90;;;;;;4994261;28;20034;-69
2023/01/04 08:22:43;;;;;;;1.88;0.77;;;9.10;99.90;;;;;;4995060;28;20057;-69
2023/01/04 08:25:09;;;;;;;4.20;0.83;;;9.10;99.90;;;;;;4993679;28;20108;-69
2023/01/04 08:27:35;;;;;;;3.63;0.70;;;9.20;99.90;;;;;;4994101;28;20117;-69
2023/01/04 08:30:00;;;;;;;5.00;0.70;;;9.20;99.90;;;;;;4995842;28;20398;-70
2023/01/04 08:32:26;;;;;;;3.30;0.67;;;9.30;99.90;;;;;;4995175;28;20081;-69
2023/01/04 08:34:53;;;;;;;1.35;0.60;;;9.40;99.90;;;;;;4995000;28;20037;-69
2023/01/04 08:37:18;;;;;;;;;;;9.40;99.90;;;;;;4995400;28;20026;-69
2023/01/04 08:39:44;;;;;;;3.40;0.60;;;9.50;99.90;;;;;;4994479;28;19968;-73
2023/01/04 08:42:09;;;;;;;1.73;0.67;;;9.50;99.90;;;;;;4996070;28;20053;-71
2023/01/04 08:44:35;;;;;;;2.90;1.10;;;9.50;99.90;;;;;;4996312;28;20042;-73
2023/01/04 08:47:00;;;;;;;2.80;0.70;;;9.60;99.90;;;;;;4995746;28;20093;-72
2023/01/04 08:49:26;;;;;;;1.27;0.57;;;9.60;99.90;;;;;;4995205;28;20022;-72
2023/01/04 08:51:52;;;;;;;2.50;0.70;;;9.60;99.90;;;;;;4995151;28;20296;-72
2023/01/04 08:54:18;;;;;;;4.17;1.00;;;9.60;99.90;;;;;;4994985;28;20078;-69
2023/01/04 08:56:43;;;;;;;2.65;0.80;;;9.70;99.90;;;;;;4994646;28;20034;-69
2023/01/04 08:59:10;;;;;;;1.20;0.60;;;9.70;99.90;;;;;;4994828;28;20085;-69
2023/01/04 09:01:35;;;;;;;;;;;9.70;99.90;;;;;;4995038;28;20100;-68
2023/01/04 09:04:01;;;;;;;2.63;0.65;;;9.80;99.90;;;;;;4995244;28;20366;-70
2023/01/04 09:06:27;;;;;;;1.87;0.53;;;9.80;99.90;;;;;;4994540;28;20065;-70
2023/01/04 09:08:55;;;;;;;3.75;0.63;;;9.80;99.90;;;;;;5009127;28;20261;-70
2023/01/04 09:11:21;;;;;;;1.55;0.60;;;9.80;99.90;;;;;;5009470;28;20029;-70
2023/01/04 09:13:47;;;;;;;2.92;0.70;;;9.80;99.90;;;;;;4995452;28;20026;-70
2023/01/04 09:16:18;;;;;;;1.02;0.50;;;9.90;99.90;;;;;;4994179;28;20054;-71
2023/01/04 09:18:45;;;;;;;3.00;1.05;;;9.90;99.90;;;;;;4994828;28;20030;-70
2023/01/04 09:21:13;;;;;;;6.25;0.80;;;9.90;99.90;;;;;;4994138;28;20034;-69
2023/01/04 09:23:39;;;;;;;2.75;0.60;;;10.00;99.90;;;;;;4994300;28;20176;-71
2023/01/04 09:26:05;;;;;;;;;;;9.90;99.90;;;;;;4994128;28;20069;-70
2023/01/04 09:28:31;;;;;;;1.85;0.60;;;10.00;99.90;;;;;;4995210;28;19961;-70
2023/01/04 09:30:56;;;;;;;2.63;0.90;;;10.00;99.90;;;;;;4995041;28;20026;-71
2023/01/04 09:33:22;;;;;;;2.50;0.90;;;10.00;99.90;;;;;;4996736;28;20105;-71
2023/01/04 09:35:48;;;;;;;5.00;1.07;;;10.10;99.90;;;;;;4995222;28;20062;-70
2023/01/04 09:38:13;;;;;;;1.80;0.60;;;10.00;99.90;;;;;;4994722;28;20030;-69
2023/01/04 09:40:54;;;;;;;5.97;0.60;;;10.10;99.90;;;;;;4994878;28;20034;-70
2023/01/04 09:43:22;;;;;;;2.17;0.90;;;10.10;99.90;;;;;;4993767;28;20026;-70
2023/01/04 09:45:52;;;;;;;2.45;0.73;;;10.00;99.90;;;;;;4993721;28;20033;-70
2023/01/04 09:48:24;;;;;;;2.22;0.70;;;10.10;99.90;;;;;;4995750;28;20475;-70
2023/01/04 09:51:12;;;;;;;3.38;0.80;;;10.10;99.90;;;;;;4994699;28;20026;-69
2023/01/04 09:53:52;;;;;;;2.67;0.80;;;10.10;99.90;;;;;;4991986;28;20045;-70
2023/01/04 09:56:30;;;;;;;2.05;0.70;;;10.10;99.90;;;;;;4993854;28;20541;-71
2023/01/04 09:58:57;;;;;;;4.65;1.23;;;10.20;99.90;;;;;;4993993;28;20088;-71
2023/01/04 10:01:43;;;;;;;1.35;0.68;;;10.20;99.90;;;;;;4993919;28;20027;-71
2023/01/04 10:04:22;;;;;;;3.10;0.75;;;10.20;99.90;;;;;;4993988;28;20391;-71
2023/01/04 10:06:48;;;;;;;2.65;0.90;;;10.30;99.90;;;;;;4991692;28;20033;-72
2023/01/04 10:09:16;;;;;;;3.35;1.10;;;10.30;99.90;;;;;;4993230;28;20072;-73
2023/01/04 10:11:52;;;;;;;2.28;0.80;;;10.30;99.90;;;;;;4994319;28;20066;-71
2023/01/04 10:14:27;;;;;;;1.77;0.63;;;10.40;99.90;;;;;;4992543;28;20033;-72
2023/01/04 10:17:12;;;;;;;1.88;0.80;;;10.50;99.90;;;;;;4994302;28;20066;-72
2023/01/04 10:19:48;;;;;;;1.70;0.50;;;10.50;99.90;;;;;;4994160;28;20436;-72
2023/01/04 10:22:25;;;;;;;2.85;0.57;;;10.60;99.90;;;;;;4994534;28;20439;-74
2023/01/04 10:25:13;;;;;;;3.30;0.73;;;10.50;99.90;;;;;;4995395;28;20415;-71
2023/01/04 10:27:45;;;;;;;2.10;0.55;;;10.60;99.90;;;;;;4978355;28;20030;-73
2023/01/04 10:30:30;;;;;;;1.67;0.80;;;10.50;99.90;;;;;;4996558;28;20033;-71
2023/01/04 10:33:12;;;;;;;1.90;0.90;;;10.50;99.90;;;;;;4995643;28;20407;-72
2023/01/04 10:35:42;;;;;;;3.83;0.90;;;10.60;99.90;;;;;;4996110;28;20035;-73
2023/01/04 10:38:31;;;;;;;3.33;0.90;;;10.60;99.90;;;;;;4993021;28;20061;-70
2023/01/04 10:41:00;;;;;;;1.80;1.10;;;10.60;99.90;;;;;;4993831;28;20081;-70
2023/01/04 10:43:46;;;;;;;1.30;0.70;;;10.60;99.90;;;;;;4992866;28;20026;-72
2023/01/04 10:46:34;;;;;;;1.90;0.60;;;10.70;99.90;;;;;;4996889;28;20479;-73
2023/01/04 10:49:14;;;;;;;2.28;0.80;;;10.60;99.90;;;;;;4997573;28;20139;-71
2023/01/04 10:51:58;;;;;;;5.03;0.90;;;10.60;99.90;;;;;;4996985;28;20023;-71
2023/01/04 10:54:37;;;;;;;3.70;0.85;;;10.70;99.90;;;;;;4997022;28;20045;-70
2023/01/04 10:57:16;;;;;;;6.80;1.00;;;10.70;99.90;;;;;;4998481;28;20367;-71
2023/01/04 10:59:56;;;;;;;3.22;0.70;;;10.70;99.90;;;;;;4998413;28;20045;-71
2023/01/04 11:02:25;;;;;;;2.50;0.70;;;10.60;99.90;;;;;;4998243;28;20079;-71
2023/01/04 11:04:58;;;;;;;2.30;1.00;;;10.70;99.90;;;;;;4996814;28;20053;-71
2023/01/04 11:07:43;;;;;;;3.95;0.95;;;10.70;99.90;;;;;;4996407;28;20018;-72
2023/01/04 11:10:18;;;;;;;2.83;0.80;;;10.80;99.90;;;;;;4997773;28;20030;-72
2023/01/04 11:12:44;;;;;;;3.28;1.25;;;10.80;99.90;;;;;;4998229;28;20022;-71
2023/01/04 11:15:10;;;;;;;3.33;0.73;;;10.80;99.90;;;;;;4998098;28;20112;-71
2023/01/04 11:17:36;;;;;;;2.40;0.82;;;10.80;99.90;;;;;;4996437;28;20037;-71
2023/01/04 11:20:02;;;;;;;5.17;0.77;;;10.90;99.90;;;;;;4996540;28;20035;-71
2023/01/04 11:22:40;;;;;;;2.63;0.70;;;10.80;99.90;;;;;;4999271;28;20051;-75
2023/01/04 11:25:11;;;;;;;2.08;1.15;;;10.80;99.90;;;;;;4999502;28;20030;-72
2023/01/04 11:27:46;;;;;;;2.88;0.98;;;10.70;99.90;;;;;;4997904;28;20390;-73
2023/01/04 11:30:50;;;;;;;2.08;0.73;;;10.70;99.90;;;;;;4999674;28;20022;-72
2023/01/04 11:33:19;;;;;;;3.75;0.80;;;10.70;99.90;;;;;;5022528;23;20506;-70
2023/01/04 11:35:47;;;;;;;3.70;0.70;;;10.70;99.90;;;;;;4996292;28;20115;-70
2023/01/04 11:38:21;;;;;;;1.77;0.80;;;10.70;99.90;;;;;;5002179;28;20022;-69
2023/01/04 11:41:00;;;;;;;1.83;0.70;;;10.70;99.90;;;;;;5014445;28;20113;-70
2023/01/04 11:43:29;;;;;;;2.67;0.77;;;10.80;99.90;;;;;;4999777;28;20116;-71
2023/01/04 11:46:21;;;;;;;3.28;0.80;;;10.90;99.90;;;;;;4988108;28;20037;-70
2023/01/04 11:48:47;;;;;;;4.05;0.93;;;10.90;99.90;;;;;;4981615;28;20033;-70
2023/01/04 11:51:18;;;;;;;3.47;0.68;;;10.90;99.90;;;;;;4995306;28;20026;-71
2023/01/04 11:53:44;;;;;;;1.75;0.70;;;10.80;99.90;;;;;;4996366;28;20379;-71
2023/01/04 11:56:19;;;;;;;3.72;0.90;;;10.90;99.90;;;;;;4990543;28;20029;-70
2023/01/04 11:59:04;;;;;;;2.50;0.85;;;10.80;99.90;;;;;;4976697;28;20062;-70
2023/01/04 12:01:38;;;;;;;2.65;0.80;;;10.90;99.90;;;;;;4976697;28;20066;-70
2023/01/04 12:04:10;;;;;;;1.88;0.70;;;10.80;99.90;;;;;;4987007;28;20499;-70
2023/01/04 12:06:41;;;;;;;3.72;0.80;;;10.80;99.90;;;;;;4994907;28;20018;-71
2023/01/04 12:09:13;;;;;;;2.63;0.90;;;10.80;99.90;;;;;;4995931;28;20034;-71
2023/01/04 12:11:42;;;;;;;2.20;0.60;;;10.80;99.90;;;;;;4994511;28;20027;-69
2023/01/04 12:14:25;;;;;;;2.60;0.77;;;10.90;99.90;;;;;;4994577;28;20026;-71
2023/01/04 12:17:43;;;;;;;2.38;0.60;;;10.90;99.90;;;;;;4994422;28;20026;-71
2023/01/04 12:20:15;;;;;;;1.92;0.70;;;11.00;99.90;;;;;;4921202;29;20039;-71
2023/01/04 12:22:41;;;;;;;2.17;0.75;;;11.00;99.90;;;;;;4921148;29;20535;-71
2023/01/04 12:25:21;;;;;;;1.23;0.67;;;11.00;99.90;;;;;;4903279;29;20028;-70
2023/01/04 12:27:49;;;;;;;3.40;0.85;;;11.00;99.90;;;;;;4917795;29;20028;-70
2023/01/04 12:30:32;;;;;;;1.35;0.50;;;11.00;99.90;;;;;;4930217;29;20036;-70
2023/01/04 12:32:58;;;;;;;1.75;0.63;;;11.10;99.90;;;;;;4908284;29;20035;-71
2023/01/04 12:36:11;;;;;;;2.73;0.53;;;11.20;99.90;;;;;;4919363;29;20044;-71
2023/01/04 12:38:54;;;;;;;2.50;0.95;;;11.20;99.90;;;;;;4922859;29;20034;-69
2023/01/04 12:41:59;;;;;;;2.28;0.70;;;11.20;99.90;;;;;;4931202;29;20040;-71
2023/01/04 12:44:41;;;;;;;3.83;0.70;;;11.20;99.90;;;;;;4900005;29;20040;-70
2023/01/04 12:50:08;;;;;;;1.55;0.60;;;11.20;99.90;;;;;;4915647;29;20088;-70
2023/01/04 12:52:34;;;;;;;2.92;0.80;;;11.20;99.90;;;;;;4916229;29;20052;-70
2023/01/04 12:55:25;;;;;;;3.58;0.80;;;11.20;99.90;;;;;;4902324;28;20123;-72
2023/01/04 12:57:51;;;;;;;1.45;0.70;;;11.30;99.90;;;;;;4975185;28;20030;-70
2023/01/04 13:00:17;;;;;;;3.13;0.80;;;11.20;99.90;;;;;;4975048;28;20157;-70
2023/01/04 13:02:50;;;;;;;3.00;0.80;;;11.20;99.90;;;;;;4974023;28;20126;-69
2023/01/04 13:05:16;;;;;;;1.10;0.70;;;11.30;99.90;;;;;;4993529;28;20518;-71
2023/01/04 13:07:59;;;;;;;2.47;0.70;;;11.30;99.90;;;;;;4993144;28;20026;-74
2023/01/04 13:10:35;;;;;;;1.95;0.55;;;11.30;99.90;;;;;;4992878;28;20523;-74
2023/01/04 13:13:25;;;;;;;0.90;0.60;;;11.30;99.90;;;;;;4993027;28;20054;-74
2023/01/04 13:16:15;;;;;;;1.48;0.60;;;11.30;99.90;;;;;;4973354;28;20031;-73
2023/01/04 13:18:46;;;;;;;3.60;1.23;;;11.30;99.90;;;;;;4991488;28;20129;-71
2023/01/04 13:21:17;;;;;;;2.78;0.80;;;11.30;99.90;;;;;;4973036;28;20109;-70
2023/01/04 13:23:55;;;;;;;2.22;0.70;;;11.20;99.90;;;;;;4974699;28;20027;-69
2023/01/04 13:26:48;;;;;;;1.25;0.70;;;11.30;99.90;;;;;;4993596;28;20030;-69
2023/01/04 13:29:23;;;;;;;4.72;0.90;;;11.30;99.90;;;;;;4994111;28;20034;-70
2023/01/04 13:32:03;;;;;;;2.13;0.80;;;11.30;99.90;;;;;;4994091;28;20093;-76
2023/01/04 13:34:35;;;;;;;1.10;0.60;;;11.30;99.90;;;;;;4994173;28;20042;-76
2023/01/04 13:37:10;;;;;;;1.40;0.77;;;11.30;99.90;;;;;;4992901;28;20019;-76
2023/01/04 13:39:42;;;;;;;0.85;0.65;;;11.30;99.90;;;;;;4992914;28;20049;-76
2023/01/04 13:42:29;;;;;;;4.43;0.93;;;11.30;99.90;;;;;;4993137;28;20030;-74
2023/01/04 13:45:18;;;;;;;2.50;0.93;;;11.30;99.90;;;;;;4993851;28;20390;-74
2023/01/04 13:47:45;;;;;;;1.30;0.77;;;11.30;99.90;;;;;;4979589;28;20033;-68
2023/01/04 13:50:34;;;;;;;1.52;0.90;;;11.30;99.90;;;;;;4992628;28;20061;-69
2023/01/04 13:53:00;;;;;;;3.10;1.00;;;11.30;99.90;;;;;;4993856;28;20506;-68
2023/01/04 13:55:27;;;;;;;;;;;11.20;99.90;;;;;;4984520;28;20030;-68
2023/01/04 13:57:56;;;;;;;1.93;0.90;;;11.30;99.90;;;;;;4986993;28;20016;-68
2023/01/04 14:00:23;;;;;;;1.67;0.70;;;11.30;99.90;;;;;;4992469;28;20037;-68
2023/01/04 14:03:05;;;;;;;1.30;0.70;;;11.30;99.90;;;;;;4993249;28;20054;-68
2023/01/04 14:05:30;;;;;;;2.25;0.82;;;11.40;99.90;;;;;;4991386;28;20387;-68
2023/01/04 14:07:56;;;;;;;2.47;1.60;;;11.40;99.90;;;;;;4986466;28;20031;-69
2023/01/04 14:10:21;;;;;;;2.83;1.00;;;11.40;99.90;;;;;;4986114;28;20030;-68
2023/01/04 14:12:47;;;;;;;1.70;0.80;;;11.30;99.90;;;;;;4993711;28;20026;-68
2023/01/04 14:15:24;;;;;;;0.93;0.70;;;11.30;99.90;;;;;;4991576;28;20030;-68
2023/01/04 14:17:54;;;;;;;1.52;0.93;;;11.30;99.90;;;;;;4996627;28;20038;-68
2023/01/04 14:20:23;;;;;;;2.85;0.90;;;11.30;99.90;;;;;;4979845;28;20034;-68
2023/01/04 14:22:51;;;;;;;1.83;0.85;;;11.40;99.90;;;;;;4977378;28;20026;-69
2023/01/04 14:25:47;;;;;;;2.45;0.80;;;11.30;99.90;;;;;;4976307;28;20023;-69
2023/01/04 14:28:22;;;;;;;1.77;0.70;;;11.30;99.90;;;;;;4977753;28;20070;-68
2023/01/04 14:30:51;;;;;;;1.92;0.80;;;11.30;99.90;;;;;;4986353;28;20025;-69
2023/01/04 14:33:22;;;;;;;1.35;0.77;;;11.30;99.90;;;;;;4985446;28;20038;-69
2023/01/04 14:36:00;;;;;;;3.17;0.80;;;11.40;99.90;;;;;;4978279;28;20503;-70
2023/01/04 14:38:26;;;;;;;1.73;0.70;;;11.30;99.90;;;;;;4993623;28;20034;-72
2023/01/04 14:40:52;;;;;;;1.17;0.70;;;11.30;99.90;;;;;;4987541;28;20451;-75
2023/01/04 14:43:47;;;;;;;2.80;0.85;;;11.30;99.90;;;;;;4977038;28;20027;-70
2023/01/04 14:46:13;;;;;;;2.65;0.75;;;11.30;99.90;;;;;;4988218;28;20076;-68
2023/01/04 14:48:38;;;;;;;1.53;0.80;;;11.30;99.90;;;;;;4995688;28;20415;-68
2023/01/04 14:51:05;;;;;;;3.07;0.90;;;11.30;99.90;;;;;;4996768;28;20022;-74
2023/01/04 14:53:31;;;;;;;2.03;0.70;;;11.40;99.90;;;;;;4996361;28;20034;-75
2023/01/04 14:55:57;;;;;;;1.65;0.77;;;11.30;99.90;;;;;;4996215;28;20475;-75
2023/01/04 14:58:23;;;;;;;2.37;0.83;;;11.30;99.90;;;;;;4991159;28;20539;-73
2023/01/04 15:00:48;;;;;;;1.83;0.80;;;11.40;99.90;;;;;;4978040;28;20026;-76
2023/01/04 15:03:14;;;;;;;3.30;0.73;;;11.40;99.90;;;;;;4988175;28;20130;-77
2023/01/04 15:05:43;;;;;;;2.55;0.93;;;11.40;99.90;;;;;;5001951;28;20065;-78
2023/01/04 15:08:10;;;;;;;2.60;0.77;;;11.30;99.90;;;;;;4996602;28;20064;-75
2023/01/04 15:10:36;;;;;;;4.05;0.80;;;11.30;99.90;;;;;;4981612;28;20053;-74
2023/01/04 15:13:04;;;;;;;2.77;1.00;;;11.30;99.90;;;;;;4981557;28;20019;-76
2023/01/04 15:15:32;;;;;;;3.25;1.05;;;11.30;99.90;;;;;;5005083;28;20026;-76
2023/01/04 15:17:59;;;;;;;5.38;1.90;;;11.30;99.90;;;;;;5017549;28;20060;-77
2023/01/04 15:20:25;;;;;;;2.75;0.90;;;11.30;99.90;;;;;;4999398;28;20081;-74
2023/01/04 15:22:50;;;;;;;2.25;1.02;;;11.40;99.90;;;;;;4980858;28;20390;-75
2023/01/04 15:25:16;;;;;;;2.63;1.03;;;11.40;99.90;;;;;;4991465;28;20040;-75
2023/01/04 15:27:41;;;;;;;2.87;0.70;;;11.40;99.90;;;;;;5022917;28;20526;-76
2023/01/04 15:30:10;;;;;;;2.63;0.83;;;11.40;99.90;;;;;;5002012;28;20308;-74
2023/01/04 15:32:36;;;;;;;4.03;0.82;;;11.40;99.90;;;;;;5011272;28;20030;-73
2023/01/04 15:35:03;;;;;;;4.20;2.40;;;11.40;99.90;;;;;;4997053;28;20073;-75
2023/01/04 15:37:28;;;;;;;3.67;0.90;;;11.40;99.90;;;;;;5013306;28;20085;-76
2023/01/04 15:39:54;;;;;;;4.70;1.42;;;11.30;99.90;;;;;;5011694;28;20030;-68
2023/01/04 15:45:04;;;;;;;2.35;1.20;;;11.20;99.90;;;;;;4996802;28;20029;-72
2023/01/04 15:47:30;;;;;;;2.72;0.88;;;11.20;99.90;;;;;;4996839;28;20049;-72
2023/01/04 15:49:55;;;;;;;3.45;0.85;;;11.20;99.90;;;;;;4996096;28;20475;-73
2023/01/04 15:52:21;;;;;;;1.57;0.80;;;11.10;99.90;;;;;;4994587;28;20015;-74
2023/01/04 15:54:47;;;;;;;3.83;1.15;;;11.10;99.90;;;;;;4995353;28;20117;-73
2023/01/04 15:57:12;;;;;;;4.17;1.40;;;11.10;99.90;;;;;;4996752;28;20403;-74
2023/01/04 15:59:38;;;;;;;2.17;0.90;;;11.10;99.90;;;;;;4995786;28;20474;-74
2023/01/04 16:02:05;;;;;;;1.65;0.85;;;11.20;99.90;;;;;;4995807;28;20386;-73
2023/01/04 16:04:31;;;;;;;1.17;0.70;;;11.20;99.90;;;;;;4995961;28;20049;-74
2023/01/04 16:06:57;;;;;;;2.58;1.10;;;11.20;99.90;;;;;;4995335;28;20018;-74
2023/01/04 16:09:23;;;;;;;2.47;0.90;;;11.20;99.90;;;;;;4985525;28;20483;-77
2023/01/04 16:14:32;;;;;;;1.70;1.20;;;11.20;99.90;;;;;;4977310;28;20037;-71
2023/01/04 16:16:58;;;;;;;2.30;0.90;;;11.10;99.90;;;;;;4993076;28;20172;-72
2023/01/04 16:19:23;;;;;;;2.97;1.00;;;11.10;99.90;;;;;;4994611;28;20033;-69
2023/01/04 16:21:49;;;;;;;3.90;0.80;;;11.00;99.90;;;;;;4990703;28;20383;-73
2023/01/04 16:24:14;;;;;;;2.17;0.90;;;11.00;99.90;;;;;;4995392;28;20027;-70
2023/01/04 16:26:40;;;;;;;1.43;0.87;;;11.00;99.90;;;;;;4992086;28;20363;-70
2023/01/04 16:29:05;;;;;;;2.03;0.87;;;11.00;99.90;;;;;;4993945;28;20407;-71
2023/01/04 16:31:36;;;;;;;1.00;0.63;;;11.10;99.90;;;;;;4992235;28;20511;-70
2023/01/04 16:34:02;;;;;;;2.28;0.90;;;11.10;99.90;;;;;;4993965;28;20038;-70
2023/01/04 16:36:27;;;;;;;2.40;0.80;;;11.10;99.90;;;;;;4992610;28;20447;-68
2023/01/04 16:38:54;;;;;;;4.70;1.67;;;11.20;99.90;;;;;;4975693;28;20038;-73
2023/01/04 16:41:20;;;;;;;1.73;0.80;;;11.20;99.90;;;;;;4974003;28;20023;-74
2023/01/04 16:43:50;;;;;;;;;;;11.20;99.90;;;;;;4978165;28;20372;-75
2023/01/04 16:46:22;;;;;;;1.85;0.73;;;11.20;99.90;;;;;;4999073;28;20078;-75
2023/01/04 16:48:54;;;;;;;3.10;0.85;;;11.20;99.90;;;;;;4993247;28;20049;-77
2023/01/04 16:51:22;;;;;;;2.00;1.00;;;11.20;99.90;;;;;;4976396;28;20081;-74
2023/01/04 16:53:48;;;;;;;2.17;1.23;;;11.10;99.90;;;;;;4976081;28;20433;-76
2023/01/04 16:56:16;;;;;;;2.10;0.70;;;11.00;99.90;;;;;;4990990;28;20026;-72
2023/01/04 16:58:44;;;;;;;1.25;0.70;;;11.00;99.90;;;;;;4977410;28;20062;-71
2023/01/04 17:01:12;;;;;;;1.95;1.00;;;10.90;99.90;;;;;;4993464;28;20022;-72
2023/01/04 17:03:38;;;;;;;2.67;1.05;;;10.90;99.90;;;;;;4992533;28;20094;-71
2023/01/04 17:06:09;;;;;;;2.03;0.93;;;10.90;99.90;;;;;;4974457;28;20033;-72
2023/01/04 17:08:35;;;;;;;1.50;0.80;;;10.90;99.90;;;;;;4974291;28;20038;-70
2023/01/04 17:11:10;;;;;;;1.77;0.68;;;10.80;99.90;;;;;;4974632;28;20023;-72
2023/01/04 17:13:37;;;;;;;4.43;0.73;;;10.80;99.90;;;;;;4974011;28;20089;-72
2023/01/04 17:16:03;;;;;;;;;;;10.70;99.90;;;;;;4976966;28;20035;-71
2023/01/04 17:18:28;;;;;;;2.53;0.63;;;10.60;99.90;;;;;;4994514;28;20061;-70
2023/01/04 17:20:56;;;;;;;1.25;0.60;;;10.60;99.90;;;;;;4993851;28;20049;-71
2023/01/04 17:23:24;;;;;;;2.47;0.80;;;10.60;99.90;;;;;;4993378;28;20042;-70
2023/01/04 17:25:50;;;;;;;2.83;0.85;;;10.60;99.90;;;;;;5009169;28;20034;-71
2023/01/04 17:28:16;;;;;;;4.53;1.15;;;10.60;99.90;;;;;;4993224;28;20026;-70
2023/01/04 17:30:42;;;;;;;2.23;0.80;;;10.50;99.90;;;;;;4989561;28;20510;-71
2023/01/04 17:33:08;;;;;;;2.10;0.80;;;10.50;99.90;;;;;;4974704;28;20037;-68
2023/01/04 17:35:38;;;;;;;2.38;1.05;;;10.50;99.90;;;;;;4989798;28;20056;-67
2023/01/04 17:38:05;;;;;;;1.08;0.80;;;10.40;99.90;;;;;;4979033;28;20391;-67
2023/01/04 17:40:30;;;;;;;;;;;10.30;99.90;;;;;;4975276;28;20049;-67
2023/01/04 17:42:57;;;;;;;1.17;0.57;;;10.30;99.90;;;;;;4975025;28;19906;-67
2023/01/04 17:45:23;;;;;;;2.22;0.85;;;10.30;99.90;;;;;;4993158;28;20031;-67
2023/01/04 17:47:48;;;;;;;1.93;1.03;;;10.30;99.90;;;;;;4992477;28;20136;-68
2023/01/04 17:50:14;;;;;;;1.63;1.07;;;10.20;99.90;;;;;;4994855;28;20352;-67
2023/01/04 17:52:40;;;;;;;3.08;0.93;;;10.20;99.90;;;;;;4992776;28;20027;-66
2023/01/04 17:55:06;;;;;;;1.38;0.93;;;10.10;99.90;;;;;;4989051;28;20037;-67
2023/01/04 17:57:33;;;;;;;3.15;1.05;;;10.10;99.90;;;;;;4975099;28;20117;-66
2023/01/04 17:59:59;;;;;;;3.75;1.10;;;10.00;99.90;;;;;;4984372;28;20443;-66
2023/01/04 18:02:25;;;;;;;1.15;0.63;;;10.00;99.90;;;;;;4978331;28;20033;-67
2023/01/04 18:04:51;;;;;;;2.43;1.30;;;9.90;99.90;;;;;;4979820;28;20038;-67
2023/01/04 18:07:23;;;;;;;1.70;1.13;;;9.90;99.90;;;;;;4988392;28;20023;-68
2023/01/04 18:09:49;;;;;;;4.22;1.55;;;9.90;99.90;;;;;;4982417;28;20162;-67
2023/01/04 18:12:16;;;;;;;2.70;1.10;;;9.80;99.90;;;;;;4974965;28;20038;-67
2023/01/04 18:14:42;;;;;;;;;;;9.80;99.90;;;;;;4974698;28;20038;-66
2023/01/04 18:17:07;;;;;;;2.17;0.90;;;9.80;99.90;;;;;;4972643;28;19910;-68
2023/01/04 18:19:33;;;;;;;1.97;0.90;;;9.80;99.90;;;;;;4974827;28;20396;-67
2023/01/04 18:21:58;;;;;;;3.03;1.67;;;9.80;99.90;;;;;;4974876;28;20038;-69